Swift Current Airport
CYYN : now visible

Airfield :











YOU CAN JOIN US ON...

 
LOGIN :

Register | Disclaimer

   EN    FR    IT 

 









Legend :    VFR   Marginal VFR   IFR   Intensive IFR   Very Intensive IFR
Visi :
Ceiling :
>= 8 km
>= 3000ft
5 to 8 km
1000 to 3000 ft
1500m to 5 km
500 to 1000 ft
800 to 1500m
200 to 500 ft
< 800m
< 200 ft
Symbols :   Thunderstorms  Fog  Heavy snow  Heavy precipitations  Wind > 20 kt






- Airport Elevation : 2680 ft
- IATA code : YYN


CYYN - Swift Current

CURRENT METAR :
  • 041600Z AUTO 29013G18KT 9SM BKN140 16/13 A3003 RMK SLP168 DENSITY ALT 3200FT

EXPIRED METARs :
  • 041500Z AUTO 26011KT 9SM SCT031 BKN130 15/13 A3003 RMK SLP168 DENSITY ALT 3100FT
  • 041432Z AUTO 28010KT 9SM BKN100 BKN120 14/12 A3003 RMK SLP167 DENSITY ALT 3100FT
  • 041419Z AUTO 29011KT 9SM -RA SCT110 SCT150 SCT180 15/12 A3003 RMK SLP166 DENSITY ALT 3100FT
  • 041400Z AUTO 29010G15KT 9SM FEW150 SCT170 14/12 A3002 RMK SLP166 DENSITY ALT 3000FT

TAF TAF CYYN
Valid from the 04 at 12:00 until the 05 at 00:00 UTC


041138Z 0412/0424 28012KT P6SM SCT015
TEMPO 0412/0416 BKN015
FM041600 32015G25KT P6SM FEW030
FM042100 32015G25KT P6SM BKN060 RMK FCST BASED ON AUTO OBS. NXT FCST BY 041800Z
CZWG FIR / North America



MET'MAP, your aeronautical weather chart ! - Copyright ORBIFLY December 2007 - Disclaimer

ORBIFLY MET'MAP TEAM :

Programming & Development : Alexandra Zaïnal
Concept & original design : Baudouin d'Aumeries
Assistance for programming : Marc-Olivier Méhu
Technical & hardware support : Manuel Goepfert

Contact : metmap@orbifly.com




SOURCES & CREDITS :

   NOAA       Earth
Advisory